Time;durP1;ratioP1;P1;durP2;ratioP2;P2;SDS_P1;SDS_P2;PMS_P1;PMS_P2;Temp;Humidity;BMP_temperature;BMP_pressure;BME280_temperature;BME280_humidity;BME280_pressure;Samples;Min_cycle;Max_cycle;Signal;HPM_P1;HPM_P2
2022/03/03 00:01:56;;;;;;;84.00;24.75;;;11.00;75.60;;;;;;5004066;28;20184;-63
2022/03/03 00:04:22;;;;;;;92.35;25.90;;;10.90;75.60;;;;;;5022282;28;20068;-62
2022/03/03 00:06:47;;;;;;;87.93;26.15;;;10.90;75.90;;;;;;5022198;28;20088;-63
2022/03/03 00:09:13;;;;;;;97.50;24.63;;;10.80;75.90;;;;;;5021020;28;20021;-65
2022/03/03 00:11:39;;;;;;;81.82;25.38;;;10.90;76.00;;;;;;5022322;28;20065;-61
2022/03/03 00:14:04;;;;;;;75.68;23.15;;;10.80;75.90;;;;;;5021024;28;20442;-66
2022/03/03 00:16:30;;;;;;;88.63;25.40;;;10.80;75.80;;;;;;5021453;28;20397;-63
2022/03/03 00:18:55;;;;;;;74.70;23.25;;;10.80;75.90;;;;;;5005960;28;20045;-63
2022/03/03 00:21:21;;;;;;;78.65;23.77;;;10.80;75.90;;;;;;5023221;28;20056;-64
2022/03/03 00:23:47;;;;;;;80.32;22.83;;;10.80;76.20;;;;;;5004050;28;20674;-66
2022/03/03 00:26:13;;;;;;;89.25;23.02;;;10.70;76.20;;;;;;5018586;28;20477;-61
2022/03/03 00:28:38;;;;;;;87.18;23.52;;;10.70;76.30;;;;;;5020858;28;20052;-61
2022/03/03 00:31:05;;;;;;;92.93;23.70;;;10.70;76.30;;;;;;5020558;28;20046;-64
2022/03/03 00:33:30;;;;;;;87.40;22.70;;;10.70;76.40;;;;;;5019420;28;20101;-63
2022/03/03 00:35:56;;;;;;;78.32;23.08;;;10.70;76.30;;;;;;5019578;28;20534;-66
2022/03/03 00:38:21;;;;;;;71.53;22.92;;;10.70;76.90;;;;;;5020294;28;20500;-65
2022/03/03 00:40:47;;;;;;;90.68;23.17;;;10.60;76.30;;;;;;5019701;28;20506;-61
2022/03/03 00:43:12;;;;;;;76.38;23.80;;;10.60;76.30;;;;;;5019582;28;21794;-62
2022/03/03 00:45:38;;;;;;;76.75;24.45;;;10.60;76.40;;;;;;5021852;28;20448;-63
2022/03/03 00:48:04;;;;;;;71.00;24.63;;;10.60;76.40;;;;;;5023656;28;20466;-62
2022/03/03 00:50:29;;;;;;;80.70;26.13;;;10.60;76.40;;;;;;5002436;28;20132;-62
2022/03/03 00:52:55;;;;;;;73.30;28.13;;;10.60;76.10;;;;;;5019374;28;20033;-61
2022/03/03 00:55:21;;;;;;;66.95;27.88;;;10.50;76.00;;;;;;5020668;28;20042;-60
2022/03/03 00:57:46;;;;;;;68.47;26.70;;;10.50;75.80;;;;;;5019288;28;20057;-61
2022/03/03 01:00:12;;;;;;;73.85;27.58;;;10.50;75.80;;;;;;5021836;28;20048;-61
2022/03/03 01:02:37;;;;;;;73.70;25.00;;;10.40;75.70;;;;;;5019760;28;20037;-61
2022/03/03 01:05:04;;;;;;;56.95;24.35;;;10.40;75.90;;;;;;4999937;28;20042;-60
2022/03/03 01:07:29;;;;;;;68.88;25.27;;;10.50;76.10;;;;;;5018461;28;20100;-62
2022/03/03 01:09:55;;;;;;;75.70;24.02;;;10.40;76.00;;;;;;5019681;28;20037;-66
2022/03/03 01:12:20;;;;;;;65.85;22.27;;;10.40;76.10;;;;;;5021358;28;20041;-64
2022/03/03 01:14:46;;;;;;;77.88;24.30;;;10.40;76.00;;;;;;5019978;28;20462;-65
2022/03/03 01:17:13;;;;;;;73.57;24.15;;;10.40;76.20;;;;;;5002896;28;20083;-63
2022/03/03 01:19:39;;;;;;;59.58;23.20;;;10.30;76.20;;;;;;5019225;28;20040;-63
2022/03/03 01:22:04;;;;;;;67.78;23.48;;;10.30;76.30;;;;;;5017605;28;20304;-65
2022/03/03 01:24:31;;;;;;;58.92;22.95;;;10.30;76.40;;;;;;5022453;28;20021;-64
2022/03/03 01:26:56;;;;;;;52.67;23.02;;;10.30;76.30;;;;;;5020386;28;20795;-66
2022/03/03 01:29:22;;;;;;;60.80;22.45;;;10.30;76.00;;;;;;5023199;28;20116;-65
2022/03/03 01:31:47;;;;;;;52.65;21.27;;;10.30;76.20;;;;;;5021080;28;20424;-63
2022/03/03 01:34:13;;;;;;;60.95;22.85;;;10.30;76.80;;;;;;5002663;28;20037;-63
2022/03/03 01:36:39;;;;;;;59.05;23.63;;;10.30;76.90;;;;;;5020637;28;20048;-66
2022/03/03 01:39:05;;;;;;;67.18;26.00;;;10.20;76.80;;;;;;5004664;28;20041;-65
2022/03/03 01:41:30;;;;;;;62.78;26.48;;;10.30;76.90;;;;;;5019705;28;20041;-61
2022/03/03 01:43:56;;;;;;;64.93;25.50;;;10.20;76.90;;;;;;5020100;28;20040;-62
2022/03/03 01:46:21;;;;;;;59.22;23.10;;;10.20;77.00;;;;;;5003304;28;20051;-61
2022/03/03 01:48:47;;;;;;;56.22;23.75;;;10.20;77.00;;;;;;5001885;28;20196;-61
2022/03/03 01:51:12;;;;;;;55.20;22.20;;;10.20;77.10;;;;;;5019979;28;20108;-60
2022/03/03 01:53:38;;;;;;;58.78;23.20;;;10.20;77.00;;;;;;5021901;28;20029;-62
2022/03/03 01:56:04;;;;;;;52.67;25.58;;;10.20;76.80;;;;;;5019405;28;20105;-61
2022/03/03 01:58:30;;;;;;;48.55;24.60;;;10.20;76.80;;;;;;5003796;28;20214;-60
2022/03/03 02:00:55;;;;;;;62.60;25.55;;;10.20;77.40;;;;;;5001764;28;20092;-59
2022/03/03 02:03:21;;;;;;;49.20;24.13;;;10.10;76.70;;;;;;5021837;28;20747;-63
2022/03/03 02:05:46;;;;;;;54.08;23.30;;;10.10;76.90;;;;;;5020235;28;20434;-63
2022/03/03 02:08:13;;;;;;;64.05;24.63;;;10.10;76.90;;;;;;5019276;28;20152;-63
2022/03/03 02:10:38;;;;;;;56.90;22.85;;;10.10;77.00;;;;;;5003277;28;20021;-62
2022/03/03 02:13:04;;;;;;;53.55;23.63;;;10.00;77.00;;;;;;5019894;28;20044;-60
2022/03/03 02:15:30;;;;;;;49.10;23.00;;;10.10;77.10;;;;;;5018429;28;20037;-63
2022/03/03 02:17:56;;;;;;;53.25;22.35;;;10.10;77.00;;;;;;5022433;28;20033;-60
2022/03/03 02:20:28;;;;;;;56.05;23.55;;;10.00;77.00;;;;;;5020271;28;20021;-61
2022/03/03 02:22:54;;;;;;;48.17;23.05;;;10.00;77.00;;;;;;5017788;28;20049;-62
2022/03/03 02:25:20;;;;;;;57.40;23.02;;;10.00;77.10;;;;;;5002137;28;20036;-61
2022/03/03 02:27:45;;;;;;;55.55;22.05;;;10.00;77.10;;;;;;5000692;28;20049;-61
2022/03/03 02:30:12;;;;;;;44.08;22.88;;;10.00;77.00;;;;;;5002508;28;20050;-61
2022/03/03 02:32:38;;;;;;;48.97;20.83;;;9.90;77.00;;;;;;5003798;28;20040;-61
2022/03/03 02:35:04;;;;;;;54.28;22.02;;;9.90;77.00;;;;;;5017429;28;20092;-59
2022/03/03 02:37:33;;;;;;;51.80;23.70;;;9.90;77.10;;;;;;5019548;28;20040;-63
2022/03/03 02:39:59;;;;;;;42.20;22.42;;;9.90;77.30;;;;;;5017316;28;20132;-65
2022/03/03 02:42:24;;;;;;;45.75;23.25;;;9.80;77.20;;;;;;5018671;28;20129;-65
2022/03/03 02:44:50;;;;;;;53.88;22.17;;;9.80;77.30;;;;;;5020516;28;20044;-64
2022/03/03 02:47:15;;;;;;;45.53;22.90;;;9.80;77.40;;;;;;5019460;28;20464;-63
2022/03/03 02:49:41;;;;;;;50.80;25.83;;;9.80;77.30;;;;;;5018348;28;20034;-63
2022/03/03 02:52:06;;;;;;;38.92;22.50;;;9.80;77.20;;;;;;5021009;28;20042;-61
2022/03/03 02:54:32;;;;;;;39.17;22.30;;;9.70;77.40;;;;;;5018194;28;20356;-64
2022/03/03 02:59:42;;;;;;;39.95;21.00;;;9.70;77.50;;;;;;5020267;28;20379;-62
2022/03/03 03:02:07;;;;;;;42.58;21.75;;;9.70;77.20;;;;;;5005333;28;20111;-64
2022/03/03 03:04:32;;;;;;;38.28;21.95;;;9.70;77.00;;;;;;5022870;28;20104;-63
2022/03/03 03:06:58;;;;;;;41.60;21.60;;;9.70;76.90;;;;;;5022748;28;20053;-64
2022/03/03 03:09:23;;;;;;;42.53;21.20;;;9.70;77.10;;;;;;5022389;28;20457;-66
2022/03/03 03:11:49;;;;;;;45.50;21.92;;;9.70;77.10;;;;;;5023823;28;20033;-63
2022/03/03 03:14:14;;;;;;;49.05;22.85;;;9.60;77.30;;;;;;5018532;28;20030;-63
2022/03/03 03:16:40;;;;;;;51.28;24.05;;;9.60;77.20;;;;;;5019571;28;20044;-64
2022/03/03 03:19:05;;;;;;;52.00;26.48;;;9.60;77.20;;;;;;5019863;28;20037;-64
2022/03/03 03:21:31;;;;;;;47.00;25.73;;;9.60;77.20;;;;;;5022258;28;20484;-65
2022/03/03 03:23:56;;;;;;;46.25;24.38;;;9.60;77.20;;;;;;5022024;28;20045;-61
2022/03/03 03:26:22;;;;;;;45.13;22.95;;;9.50;77.30;;;;;;5022962;28;20114;-62
2022/03/03 03:28:47;;;;;;;48.22;24.00;;;9.50;77.50;;;;;;5020056;28;20033;-62
2022/03/03 03:31:13;;;;;;;48.35;24.17;;;9.50;77.30;;;;;;5021215;28;20056;-63
2022/03/03 03:33:38;;;;;;;42.05;22.30;;;9.50;77.10;;;;;;5022730;28;20429;-62
2022/03/03 03:36:04;;;;;;;49.33;22.80;;;9.50;77.00;;;;;;5021837;28;20041;-61
2022/03/03 03:38:29;;;;;;;38.17;22.30;;;9.50;76.90;;;;;;5022190;28;20014;-62
2022/03/03 03:40:55;;;;;;;41.58;22.70;;;9.40;76.80;;;;;;5023583;28;20432;-61
2022/03/03 03:43:20;;;;;;;41.45;22.27;;;9.40;76.80;;;;;;5018838;28;20369;-62
2022/03/03 03:45:46;;;;;;;40.88;21.58;;;9.40;76.80;;;;;;5020723;28;20053;-65
2022/03/03 03:48:11;;;;;;;39.88;23.00;;;9.40;76.80;;;;;;5021121;28;20030;-65
2022/03/03 03:50:37;;;;;;;40.40;22.20;;;9.40;76.90;;;;;;5023125;28;20099;-63
2022/03/03 03:53:02;;;;;;;37.40;21.80;;;9.40;76.80;;;;;;5021624;28;20166;-63
2022/03/03 03:55:28;;;;;;;41.88;22.73;;;9.30;76.70;;;;;;5021068;28;20034;-62
2022/03/03 03:57:53;;;;;;;41.10;21.75;;;9.30;76.70;;;;;;5019663;28;20033;-60
2022/03/03 04:00:19;;;;;;;39.70;21.80;;;9.30;76.60;;;;;;5022256;28;20061;-63
2022/03/03 04:02:45;;;;;;;35.70;20.70;;;9.30;76.60;;;;;;5021692;28;20068;-62
2022/03/03 04:05:11;;;;;;;30.40;20.58;;;9.20;76.50;;;;;;5019587;28;20030;-63
2022/03/03 04:07:37;;;;;;;40.72;22.05;;;9.30;76.60;;;;;;5005290;28;20132;-60
2022/03/03 04:10:03;;;;;;;31.17;19.25;;;9.20;76.60;;;;;;5021156;28;20083;-61
2022/03/03 04:12:28;;;;;;;41.47;21.25;;;9.20;76.70;;;;;;5003164;28;20437;-61
2022/03/03 04:14:54;;;;;;;38.72;21.80;;;9.20;76.70;;;;;;5020652;28;20422;-62
2022/03/03 04:17:19;;;;;;;35.53;21.30;;;9.20;76.70;;;;;;5022338;28;20449;-62
2022/03/03 04:19:45;;;;;;;33.80;21.42;;;9.10;76.60;;;;;;5020196;28;20099;-61
2022/03/03 04:22:10;;;;;;;36.97;21.30;;;9.10;76.50;;;;;;5003934;28;20107;-61
2022/03/03 04:24:36;;;;;;;38.88;20.33;;;9.10;76.50;;;;;;5020590;28;20053;-63
2022/03/03 04:27:02;;;;;;;35.90;20.92;;;9.10;76.50;;;;;;5021386;28;20464;-63
2022/03/03 04:29:27;;;;;;;33.08;20.95;;;9.10;76.60;;;;;;5021081;28;20037;-61
2022/03/03 04:31:54;;;;;;;35.25;20.30;;;9.10;76.60;;;;;;5022736;28;20383;-62
2022/03/03 04:34:20;;;;;;;33.50;20.13;;;9.10;76.50;;;;;;5021459;28;20314;-61
2022/03/03 04:36:46;;;;;;;34.42;20.95;;;9.00;76.50;;;;;;5019673;28;20037;-61
2022/03/03 04:39:11;;;;;;;31.73;20.20;;;9.00;76.50;;;;;;5021210;28;20045;-64
2022/03/03 04:41:37;;;;;;;32.28;20.15;;;8.90;76.50;;;;;;5021917;28;20029;-66
2022/03/03 04:44:02;;;;;;;39.00;21.35;;;8.90;76.60;;;;;;5019165;28;20037;-63
2022/03/03 04:46:28;;;;;;;36.70;21.80;;;8.90;76.70;;;;;;5020571;28;20034;-62
2022/03/03 04:48:59;;;;;;;38.90;20.73;;;8.90;76.80;;;;;;5020838;28;20433;-62
2022/03/03 04:51:28;;;;;;;33.92;20.08;;;8.90;76.80;;;;;;5018934;28;20038;-63
2022/03/03 04:53:53;;;;;;;40.97;20.98;;;8.90;76.90;;;;;;5019675;28;20141;-62
2022/03/03 04:56:19;;;;;;;31.98;20.95;;;8.80;76.90;;;;;;5021124;28;20104;-61
2022/03/03 04:58:45;;;;;;;33.53;19.95;;;8.80;76.90;;;;;;5019907;28;20029;-61
2022/03/03 05:01:11;;;;;;;32.60;21.48;;;8.80;77.00;;;;;;5017902;28;20044;-62
2022/03/03 05:03:36;;;;;;;33.92;21.35;;;8.80;76.80;;;;;;5019890;28;20041;-62
2022/03/03 05:06:02;;;;;;;38.75;21.73;;;8.80;76.80;;;;;;5018268;28;20060;-63
2022/03/03 05:08:27;;;;;;;34.88;21.42;;;8.80;76.80;;;;;;5022148;28;20029;-63
2022/03/03 05:10:53;;;;;;;30.25;19.92;;;8.70;76.80;;;;;;5021299;28;20029;-65
2022/03/03 05:13:18;;;;;;;36.70;21.02;;;8.70;76.80;;;;;;5018592;28;20025;-64
2022/03/03 05:15:44;;;;;;;32.33;20.80;;;8.70;77.00;;;;;;5019663;28;20419;-64
2022/03/03 05:18:09;;;;;;;32.88;20.40;;;8.70;77.00;;;;;;5021289;28;20099;-63
2022/03/03 05:20:35;;;;;;;32.63;20.35;;;8.70;77.10;;;;;;5021051;28;20033;-63
2022/03/03 05:23:00;;;;;;;31.45;20.83;;;8.70;77.10;;;;;;5019789;28;20118;-61
2022/03/03 05:25:26;;;;;;;57.05;22.17;;;8.70;77.10;;;;;;5018851;28;20032;-62
2022/03/03 05:27:51;;;;;;;45.88;20.98;;;8.60;77.00;;;;;;5018486;28;20540;-61
2022/03/03 05:30:17;;;;;;;40.25;20.13;;;8.60;77.00;;;;;;5014274;28;20042;-62
2022/03/03 05:32:43;;;;;;;50.53;22.08;;;8.60;77.00;;;;;;5017159;28;20113;-62
2022/03/03 05:35:09;;;;;;;35.58;20.02;;;8.60;77.10;;;;;;5020219;28;20128;-63
2022/03/03 05:37:34;;;;;;;40.85;20.73;;;8.60;77.20;;;;;;5019538;28;20121;-60
2022/03/03 05:40:00;;;;;;;39.38;21.60;;;8.60;77.20;;;;;;5001203;28;20022;-60
2022/03/03 05:42:26;;;;;;;47.85;21.85;;;8.60;77.20;;;;;;5017113;28;20060;-63
2022/03/03 05:44:51;;;;;;;48.28;20.58;;;8.60;77.10;;;;;;5001560;28;20488;-62
2022/03/03 05:47:17;;;;;;;31.52;20.05;;;8.50;77.00;;;;;;5020428;28;20029;-60
2022/03/03 05:49:43;;;;;;;41.22;20.55;;;8.50;77.20;;;;;;4985269;28;20174;-63
2022/03/03 05:52:09;;;;;;;44.00;20.58;;;8.50;77.20;;;;;;5019207;28;20033;-60
2022/03/03 05:54:35;;;;;;;35.75;20.67;;;8.50;77.20;;;;;;5002061;28;20033;-62
2022/03/03 05:57:01;;;;;;;39.42;20.75;;;8.50;77.20;;;;;;5001144;28;20075;-63
2022/03/03 05:59:26;;;;;;;39.95;21.30;;;8.40;77.20;;;;;;4999076;28;20481;-64
2022/03/03 06:01:52;;;;;;;39.47;19.50;;;8.40;77.30;;;;;;5001793;28;20036;-63
2022/03/03 06:04:18;;;;;;;38.17;21.48;;;8.40;77.30;;;;;;5001805;28;20056;-63
2022/03/03 06:06:52;;;;;;;47.22;20.88;;;8.40;77.30;;;;;;5020111;28;20470;-61
2022/03/03 06:09:18;;;;;;;36.60;21.20;;;8.40;77.30;;;;;;5017110;28;20037;-61
2022/03/03 06:11:56;;;;;;;34.53;20.15;;;8.40;77.30;;;;;;5002748;28;20129;-61
2022/03/03 06:14:36;;;;;;;40.42;21.17;;;8.40;78.10;;;;;;5017875;28;20060;-62
2022/03/03 06:17:02;;;;;;;38.00;20.45;;;8.30;77.50;;;;;;5019381;28;20045;-63
2022/03/03 06:19:29;;;;;;;38.10;19.70;;;8.30;77.60;;;;;;5001594;28;20033;-61
2022/03/03 06:21:54;;;;;;;35.67;20.65;;;8.30;77.70;;;;;;5018149;28;20033;-62
2022/03/03 06:24:20;;;;;;;37.13;19.85;;;8.30;77.70;;;;;;5001519;28;20109;-62
2022/03/03 06:26:47;;;;;;;37.50;20.65;;;8.30;77.70;;;;;;5019337;28;20030;-63
2022/03/03 06:29:13;;;;;;;33.65;20.00;;;8.30;77.80;;;;;;5016874;28;20049;-62
2022/03/03 06:31:38;;;;;;;33.63;20.38;;;8.30;77.70;;;;;;5017236;28;20127;-62
2022/03/03 06:34:04;;;;;;;35.67;21.92;;;8.30;77.80;;;;;;5017309;28;20037;-63
2022/03/03 06:36:29;;;;;;;31.95;20.45;;;8.30;78.30;;;;;;5021700;28;20038;-63
2022/03/03 06:38:55;;;;;;;37.28;20.35;;;8.20;78.10;;;;;;5022753;28;20056;-62
2022/03/03 06:41:22;;;;;;;35.38;19.60;;;8.20;78.20;;;;;;5021777;28;20543;-62
2022/03/03 06:43:47;;;;;;;39.10;21.25;;;8.20;78.20;;;;;;5019149;28;20025;-63
2022/03/03 06:46:18;;;;;;;33.35;20.30;;;8.20;78.40;;;;;;5004853;28;20096;-62
2022/03/03 06:48:43;;;;;;;31.67;20.02;;;8.20;78.30;;;;;;5020936;28;20132;-61
2022/03/03 06:51:11;;;;;;;35.08;21.27;;;8.20;78.40;;;;;;5020572;28;20514;-63
2022/03/03 06:53:36;;;;;;;29.92;20.00;;;8.20;78.40;;;;;;4999564;28;20033;-60
2022/03/03 06:56:03;;;;;;;32.97;20.42;;;8.20;78.40;;;;;;5023770;28;20438;-61
2022/03/03 06:58:29;;;;;;;31.17;20.42;;;8.20;78.40;;;;;;5022930;28;20671;-62
2022/03/03 07:00:55;;;;;;;34.22;20.60;;;8.10;78.50;;;;;;5023418;28;20115;-62
2022/03/03 07:03:21;;;;;;;36.63;20.85;;;8.10;78.60;;;;;;5007962;28;20021;-61
2022/03/03 07:05:47;;;;;;;36.08;19.92;;;8.10;78.60;;;;;;5024078;28;20025;-61
2022/03/03 07:08:12;;;;;;;37.45;21.52;;;8.10;78.60;;;;;;5023325;28;20670;-61
2022/03/03 07:10:38;;;;;;;31.88;21.25;;;8.00;78.50;;;;;;5000954;28;20520;-61
2022/03/03 07:13:03;;;;;;;33.78;20.33;;;8.00;78.50;;;;;;5016585;28;20060;-63
2022/03/03 07:15:29;;;;;;;37.95;21.05;;;8.00;78.50;;;;;;5019274;28;20124;-61
2022/03/03 07:18:26;;;;;;;29.95;20.38;;;8.00;78.40;;;;;;5020945;28;20041;-62
2022/03/03 07:21:17;;;;;;;28.92;19.95;;;8.00;78.30;;;;;;5012422;28;20041;-61
2022/03/03 07:24:02;;;;;;;29.40;19.05;;;8.00;78.30;;;;;;5011511;28;20103;-62
2022/03/03 07:26:27;;;;;;;53.20;21.35;;;8.00;78.20;;;;;;5003626;28;20034;-61
2022/03/03 07:28:53;;;;;;;38.97;21.48;;;7.90;78.10;;;;;;5016639;28;20048;-60
2022/03/03 07:31:20;;;;;;;33.55;20.58;;;7.90;78.10;;;;;;5020711;28;20061;-61
2022/03/03 07:33:46;;;;;;;29.88;19.80;;;7.90;78.00;;;;;;4991768;28;20108;-61
2022/03/03 07:36:18;;;;;;;29.80;21.05;;;7.90;78.00;;;;;;5024510;28;20086;-62
2022/03/03 07:38:45;;;;;;;72.40;24.05;;;7.90;78.00;;;;;;5002970;28;20188;-61
2022/03/03 07:41:10;;;;;;;49.47;22.73;;;7.90;78.10;;;;;;5019346;28;20503;-62
2022/03/03 07:43:36;;;;;;;38.30;21.38;;;7.90;78.00;;;;;;5020420;28;20256;-61
2022/03/03 07:46:02;;;;;;;38.53;20.25;;;7.80;78.00;;;;;;5019978;28;20503;-62
2022/03/03 07:48:28;;;;;;;33.38;20.70;;;7.80;78.00;;;;;;5019960;28;20167;-62
2022/03/03 07:50:53;;;;;;;33.03;21.58;;;7.80;78.00;;;;;;5018674;28;20067;-63
2022/03/03 07:53:19;;;;;;;36.17;21.48;;;7.80;77.90;;;;;;5019208;28;20440;-61
2022/03/03 07:55:50;;;;;;;45.53;22.75;;;7.80;77.80;;;;;;5018607;28;20051;-62
2022/03/03 07:58:18;;;;;;;33.95;21.40;;;7.80;77.90;;;;;;5021991;28;20025;-61
2022/03/03 08:00:47;;;;;;;32.90;20.35;;;7.80;77.80;;;;;;5020258;28;20025;-61
2022/03/03 08:03:15;;;;;;;40.97;22.10;;;7.80;77.70;;;;;;5021960;28;20025;-63
2022/03/03 08:05:42;;;;;;;39.20;21.38;;;7.80;77.70;;;;;;5023197;28;20072;-62
2022/03/03 08:08:08;;;;;;;46.53;21.02;;;7.70;77.70;;;;;;5021537;28;20098;-62
2022/03/03 08:10:34;;;;;;;41.75;22.23;;;7.80;77.80;;;;;;5002859;28;20227;-63
2022/03/03 08:13:00;;;;;;;37.53;20.73;;;7.80;77.90;;;;;;5005434;28;20120;-61
2022/03/03 08:15:25;;;;;;;36.28;22.33;;;7.70;77.60;;;;;;5020703;28;20022;-63
2022/03/03 08:17:52;;;;;;;35.42;21.60;;;7.70;77.60;;;;;;5023344;28;20736;-63
2022/03/03 08:20:17;;;;;;;50.80;22.90;;;7.70;77.60;;;;;;5005283;28;20611;-63
2022/03/03 08:22:43;;;;;;;37.92;21.60;;;7.70;77.60;;;;;;5006503;28;20053;-63
2022/03/03 08:25:10;;;;;;;47.63;22.67;;;7.70;77.60;;;;;;5006894;28;20032;-60
2022/03/03 08:27:37;;;;;;;37.60;21.85;;;7.70;77.60;;;;;;5021496;28;20036;-61
2022/03/03 08:30:03;;;;;;;55.53;23.05;;;7.70;77.70;;;;;;5022082;28;20469;-61
2022/03/03 08:32:33;;;;;;;44.15;22.95;;;7.70;77.70;;;;;;5018378;28;20045;-61
2022/03/03 08:35:11;;;;;;;39.70;22.77;;;7.70;77.80;;;;;;4990444;28;20036;-63
2022/03/03 08:37:39;;;;;;;49.80;21.83;;;7.70;77.80;;;;;;5023163;28;20132;-64
2022/03/03 08:40:06;;;;;;;54.55;22.77;;;7.70;77.80;;;;;;5003822;28;20033;-63
2022/03/03 08:42:35;;;;;;;39.63;22.33;;;7.70;77.80;;;;;;5021300;28;20608;-63
2022/03/03 08:45:02;;;;;;;37.13;23.27;;;7.70;77.70;;;;;;5021182;28;20087;-61
2022/03/03 08:47:28;;;;;;;61.42;22.77;;;7.70;77.60;;;;;;5022757;28;20441;-61
2022/03/03 08:49:59;;;;;;;43.80;22.85;;;7.70;77.70;;;;;;5007607;28;20046;-62
2022/03/03 08:52:25;;;;;;;43.78;22.95;;;7.70;77.60;;;;;;5021311;28;20022;-62
2022/03/03 08:54:50;;;;;;;48.22;22.55;;;7.80;77.60;;;;;;5005687;28;20080;-61
2022/03/03 08:57:16;;;;;;;49.92;24.15;;;7.70;77.50;;;;;;5017792;28;20073;-62
2022/03/03 08:59:41;;;;;;;50.63;23.83;;;7.80;77.70;;;;;;5020692;28;20047;-61
2022/03/03 09:02:07;;;;;;;45.00;21.70;;;7.70;77.70;;;;;;5016062;28;20049;-61
2022/03/03 09:04:32;;;;;;;56.33;24.15;;;7.70;77.70;;;;;;5015639;28;20642;-60
2022/03/03 09:06:58;;;;;;;49.35;24.45;;;7.70;77.80;;;;;;5013621;28;20041;-61
2022/03/03 09:09:24;;;;;;;49.03;21.83;;;7.70;77.80;;;;;;5014287;28;20037;-61
2022/03/03 09:11:49;;;;;;;48.30;22.13;;;7.70;77.90;;;;;;5015793;28;20029;-61
2022/03/03 09:14:15;;;;;;;44.97;23.27;;;7.70;77.90;;;;;;5016142;28;20076;-63
2022/03/03 09:16:40;;;;;;;45.40;23.98;;;7.70;77.90;;;;;;5017029;28;20493;-62
2022/03/03 09:19:07;;;;;;;39.55;22.75;;;7.70;77.90;;;;;;4982478;28;20041;-63
2022/03/03 09:21:32;;;;;;;48.15;23.80;;;7.80;78.00;;;;;;5017233;28;20437;-63
2022/03/03 09:23:58;;;;;;;36.20;22.63;;;7.70;77.90;;;;;;4998424;28;20029;-61
2022/03/03 09:26:23;;;;;;;40.28;22.63;;;7.70;78.00;;;;;;5018138;28;20386;-61
2022/03/03 09:28:49;;;;;;;51.53;24.25;;;7.80;78.00;;;;;;5011147;28;20075;-61
2022/03/03 09:31:14;;;;;;;55.80;22.73;;;7.80;78.10;;;;;;4998652;28;20045;-62
2022/03/03 09:33:40;;;;;;;67.05;25.08;;;7.80;78.10;;;;;;5014944;28;20120;-62
2022/03/03 09:36:05;;;;;;;55.90;24.30;;;7.80;78.30;;;;;;5017205;28;20120;-62
2022/03/03 09:38:31;;;;;;;55.10;24.23;;;7.80;78.10;;;;;;5018925;28;20084;-61
2022/03/03 09:40:56;;;;;;;64.55;23.65;;;7.90;78.10;;;;;;5001460;28;20381;-61
2022/03/03 09:43:22;;;;;;;49.40;22.70;;;7.90;78.10;;;;;;5015869;28;20716;-60
2022/03/03 09:45:47;;;;;;;58.30;24.70;;;7.90;78.10;;;;;;5022233;28;20492;-62
2022/03/03 09:48:13;;;;;;;57.13;23.23;;;7.90;78.20;;;;;;5012617;28;20468;-63
2022/03/03 09:50:40;;;;;;;119.10;29.25;;;7.90;78.30;;;;;;5014084;28;20348;-61
2022/03/03 09:53:10;;;;;;;94.97;29.00;;;7.90;78.40;;;;;;5000732;28;20113;-65
2022/03/03 09:55:37;;;;;;;80.70;26.48;;;7.90;78.40;;;;;;4999843;28;20669;-63
2022/03/03 09:58:02;;;;;;;59.38;24.90;;;8.00;78.40;;;;;;4997267;28;20567;-61
2022/03/03 10:00:33;;;;;;;57.83;24.50;;;8.00;78.40;;;;;;5017202;28;20045;-62
2022/03/03 10:03:10;;;;;;;65.75;24.60;;;8.00;78.30;;;;;;4986575;28;20033;-60
2022/03/03 10:05:47;;;;;;;67.00;24.33;;;8.00;78.20;;;;;;5001747;28;20029;-63
2022/03/03 10:08:14;;;;;;;65.10;24.08;;;8.00;78.20;;;;;;4997767;28;20036;-62
2022/03/03 10:10:44;;;;;;;66.97;23.35;;;8.00;78.30;;;;;;5016009;28;20883;-61
2022/03/03 10:13:10;;;;;;;61.63;25.80;;;8.10;78.40;;;;;;4991395;28;20030;-61
2022/03/03 10:15:36;;;;;;;65.45;23.83;;;8.10;78.20;;;;;;5019994;28;20018;-63
2022/03/03 10:18:06;;;;;;;47.60;23.20;;;8.10;78.20;;;;;;5016646;28;20194;-61
2022/03/03 10:20:36;;;;;;;70.35;25.73;;;8.10;78.20;;;;;;5023631;28;20056;-63
2022/03/03 10:23:02;;;;;;;68.53;25.17;;;8.10;78.50;;;;;;5007092;28;22149;-62
2022/03/03 10:25:30;;;;;;;66.97;26.20;;;8.20;78.50;;;;;;4989192;28;20071;-61
2022/03/03 10:27:55;;;;;;;72.10;24.40;;;8.20;78.50;;;;;;4997195;28;20771;-60
2022/03/03 10:30:21;;;;;;;64.70;24.27;;;8.20;78.50;;;;;;5020781;28;20069;-60
2022/03/03 10:32:47;;;;;;;53.97;24.13;;;8.20;78.40;;;;;;5021362;28;20065;-62
2022/03/03 10:35:17;;;;;;;68.32;24.98;;;8.20;78.50;;;;;;4989637;28;20495;-61
2022/03/03 10:37:44;;;;;;;67.82;26.10;;;8.30;78.50;;;;;;5016960;28;20075;-62
2022/03/03 10:40:14;;;;;;;61.78;23.67;;;8.30;78.60;;;;;;5019992;28;20060;-62
2022/03/03 10:42:44;;;;;;;78.40;26.38;;;8.30;78.70;;;;;;5020086;28;20043;-62
2022/03/03 10:45:12;;;;;;;61.90;23.85;;;8.30;78.50;;;;;;5005819;28;20063;-61
2022/03/03 10:47:38;;;;;;;86.78;26.95;;;8.40;78.70;;;;;;5025160;28;20029;-62
2022/03/03 10:50:04;;;;;;;81.68;25.90;;;8.40;78.90;;;;;;5002323;28;20047;-63
2022/03/03 10:52:31;;;;;;;93.22;26.70;;;8.40;78.80;;;;;;5024718;28;20535;-61
2022/03/03 10:55:06;;;;;;;62.58;25.60;;;8.40;78.90;;;;;;5022545;28;20061;-63
2022/03/03 10:57:35;;;;;;;68.57;26.42;;;8.50;78.90;;;;;;5008642;28;20026;-60
2022/03/03 11:00:06;;;;;;;73.97;26.17;;;8.50;78.80;;;;;;5020791;28;20038;-62
2022/03/03 11:02:32;;;;;;;85.50;25.70;;;8.50;78.70;;;;;;5023502;28;20022;-63
2022/03/03 11:04:57;;;;;;;88.13;26.67;;;8.50;78.80;;;;;;5012454;28;20060;-60
2022/03/03 11:07:23;;;;;;;66.03;24.77;;;8.60;78.80;;;;;;5020541;28;20049;-61
2022/03/03 11:09:52;;;;;;;73.97;24.83;;;8.50;78.80;;;;;;5017493;28;20050;-61
2022/03/03 11:12:19;;;;;;;74.43;26.58;;;8.60;78.50;;;;;;5015337;28;20038;-63
2022/03/03 11:14:45;;;;;;;76.13;24.33;;;8.60;78.00;;;;;;5017244;28;20056;-60
2022/03/03 11:17:10;;;;;;;81.22;24.73;;;8.60;78.40;;;;;;5002371;28;20120;-63
2022/03/03 11:19:39;;;;;;;62.53;23.42;;;8.60;77.70;;;;;;5019204;28;20498;-62
2022/03/03 11:22:04;;;;;;;59.60;22.83;;;8.70;77.70;;;;;;5019076;28;20600;-62
2022/03/03 11:24:41;;;;;;;91.10;26.52;;;8.70;77.40;;;;;;4987259;28;20113;-63
2022/03/03 11:27:07;;;;;;;96.38;27.00;;;8.70;77.70;;;;;;4988265;28;20043;-62
2022/03/03 11:29:37;;;;;;;83.43;25.70;;;8.70;78.00;;;;;;5002254;28;20049;-61
2022/03/03 11:32:15;;;;;;;95.93;24.75;;;8.80;77.90;;;;;;5020862;28;20456;-63
2022/03/03 11:34:45;;;;;;;94.68;27.95;;;8.80;77.80;;;;;;5019675;28;20021;-63
2022/03/03 11:37:17;;;;;;;92.55;26.92;;;8.90;77.70;;;;;;5033272;28;20083;-60
2022/03/03 11:40:03;;;;;;;97.28;28.55;;;8.90;77.90;;;;;;5017249;28;20025;-63
2022/03/03 11:42:35;;;;;;;90.90;26.00;;;9.00;78.30;;;;;;5018360;28;20029;-61
2022/03/03 11:45:10;;;;;;;121.03;28.75;;;9.00;77.90;;;;;;5016963;28;20033;-60
2022/03/03 11:47:37;;;;;;;93.40;25.25;;;9.00;78.00;;;;;;5016278;28;20064;-63
2022/03/03 11:50:02;;;;;;;123.32;29.63;;;9.10;78.00;;;;;;5016629;28;20041;-62
2022/03/03 11:52:28;;;;;;;86.43;28.67;;;9.10;78.10;;;;;;5019468;28;20049;-60
2022/03/03 11:54:59;;;;;;;78.35;26.70;;;9.20;78.00;;;;;;5017677;28;20033;-61
2022/03/03 11:57:28;;;;;;;114.10;27.38;;;9.20;77.80;;;;;;5002174;28;20086;-63
2022/03/03 11:59:58;;;;;;;108.32;28.95;;;9.30;77.80;;;;;;5017348;28;20091;-61
2022/03/03 12:02:30;;;;;;;109.57;28.63;;;9.30;77.60;;;;;;4998173;28;20539;-61
2022/03/03 12:05:29;;;;;;;96.30;27.95;;;9.30;77.40;;;;;;5002536;28;20033;-62
2022/03/03 12:08:01;;;;;;;115.72;30.55;;;9.40;77.50;;;;;;4994676;28;21053;-62
2022/03/03 12:10:27;;;;;;;113.35;29.17;;;9.40;77.60;;;;;;5017213;28;20691;-62
2022/03/03 12:13:13;;;;;;;112.15;27.00;;;9.50;77.60;;;;;;5000549;28;20044;-61
2022/03/03 12:15:39;;;;;;;105.43;28.48;;;9.50;77.40;;;;;;5016095;28;20091;-61
2022/03/03 12:18:04;;;;;;;135.80;28.75;;;9.50;77.20;;;;;;5015266;28;20422;-61
2022/03/03 12:20:32;;;;;;;119.90;29.95;;;9.60;77.40;;;;;;4997341;28;21397;-61
2022/03/03 12:23:23;;;;;;;143.30;30.42;;;9.60;77.50;;;;;;5014775;28;20413;-60
2022/03/03 12:25:50;;;;;;;154.48;31.10;;;9.70;77.20;;;;;;5015673;28;20077;-61
2022/03/03 12:28:22;;;;;;;125.35;29.98;;;9.70;76.90;;;;;;5020464;28;20030;-61
2022/03/03 12:30:49;;;;;;;148.57;30.13;;;9.80;76.90;;;;;;5016755;28;20037;-61
2022/03/03 12:33:25;;;;;;;126.55;29.05;;;9.80;76.30;;;;;;5017167;28;20434;-62
2022/03/03 12:35:51;;;;;;;156.50;31.17;;;9.80;76.40;;;;;;5015086;28;20676;-61